sensor_id;sensor_type;location;lat;lon;timestamp;temperature;humidity
66184;DHT22;52989;48.796;9.806;2023-07-31T00:01:43;14.30;99.90
66184;DHT22;52989;48.796;9.806;2023-07-31T00:04:09;14.00;99.90
66184;DHT22;52989;48.796;9.806;2023-07-31T00:06:34;13.80;99.90
66184;DHT22;52989;48.796;9.806;2023-07-31T00:09:00;13.70;99.90
66184;DHT22;52989;48.796;9.806;2023-07-31T00:11:25;13.70;99.90
66184;DHT22;52989;48.796;9.806;2023-07-31T00:13:53;13.60;99.90
66184;DHT22;52989;48.796;9.806;2023-07-31T00:16:20;13.50;99.90
66184;DHT22;52989;48.796;9.806;2023-07-31T00:18:45;13.50;99.90
66184;DHT22;52989;48.796;9.806;2023-07-31T00:21:11;13.50;99.90
66184;DHT22;52989;48.796;9.806;2023-07-31T00:23:38;13.50;99.90
66184;DHT22;52989;48.796;9.806;2023-07-31T00:26:03;13.40;99.90
66184;DHT22;52989;48.796;9.806;2023-07-31T00:28:28;13.50;99.90
66184;DHT22;52989;48.796;9.806;2023-07-31T00:30:54;13.30;99.90
66184;DHT22;52989;48.796;9.806;2023-07-31T00:33:19;13.20;99.90
66184;DHT22;52989;48.796;9.806;2023-07-31T00:35:45;13.10;99.90
66184;DHT22;52989;48.796;9.806;2023-07-31T00:38:10;13.60;99.90
66184;DHT22;52989;48.796;9.806;2023-07-31T00:40:36;13.20;99.90
66184;DHT22;52989;48.796;9.806;2023-07-31T00:43:03;13.10;99.90
66184;DHT22;52989;48.796;9.806;2023-07-31T00:45:28;13.20;99.90
66184;DHT22;52989;48.796;9.806;2023-07-31T00:47:54;13.10;99.90
66184;DHT22;52989;48.796;9.806;2023-07-31T00:50:22;13.00;99.90
66184;DHT22;52989;48.796;9.806;2023-07-31T00:52:47;12.90;99.90
66184;DHT22;52989;48.796;9.806;2023-07-31T00:55:13;12.90;99.90
66184;DHT22;52989;48.796;9.806;2023-07-31T00:57:38;12.80;99.90
66184;DHT22;52989;48.796;9.806;2023-07-31T01:00:06;12.90;99.90
66184;DHT22;52989;48.796;9.806;2023-07-31T01:02:32;12.90;99.90
66184;DHT22;52989;48.796;9.806;2023-07-31T01:04:58;13.00;99.90
66184;DHT22;52989;48.796;9.806;2023-07-31T01:07:39;13.20;99.90
66184;DHT22;52989;48.796;9.806;2023-07-31T01:12:33;12.90;99.90
66184;DHT22;52989;48.796;9.806;2023-07-31T01:15:03;12.70;99.90
66184;DHT22;52989;48.796;9.806;2023-07-31T01:17:29;13.00;99.90
66184;DHT22;52989;48.796;9.806;2023-07-31T01:19:55;12.80;99.90
66184;DHT22;52989;48.796;9.806;2023-07-31T01:27:58;12.80;99.90
66184;DHT22;52989;48.796;9.806;2023-07-31T01:30:25;12.70;99.90
66184;DHT22;52989;48.796;9.806;2023-07-31T01:32:53;12.70;99.90
66184;DHT22;52989;48.796;9.806;2023-07-31T01:35:19;12.60;99.90
66184;DHT22;52989;48.796;9.806;2023-07-31T01:37:45;12.80;99.90
66184;DHT22;52989;48.796;9.806;2023-07-31T01:40:11;12.70;99.90
66184;DHT22;52989;48.796;9.806;2023-07-31T01:42:36;12.70;99.90
66184;DHT22;52989;48.796;9.806;2023-07-31T01:45:02;12.60;99.90
66184;DHT22;52989;48.796;9.806;2023-07-31T01:47:27;12.50;99.90
66184;DHT22;52989;48.796;9.806;2023-07-31T01:49:54;12.50;99.90
66184;DHT22;52989;48.796;9.806;2023-07-31T01:52:19;12.60;99.90
66184;DHT22;52989;48.796;9.806;2023-07-31T01:54:45;12.70;99.90
66184;DHT22;52989;48.796;9.806;2023-07-31T01:57:10;12.60;99.90
66184;DHT22;52989;48.796;9.806;2023-07-31T01:59:36;12.50;99.90
66184;DHT22;52989;48.796;9.806;2023-07-31T02:02:01;12.40;99.90
66184;DHT22;52989;48.796;9.806;2023-07-31T02:04:27;12.30;99.90
66184;DHT22;52989;48.796;9.806;2023-07-31T02:06:52;12.30;99.90
66184;DHT22;52989;48.796;9.806;2023-07-31T02:09:18;12.30;99.90
66184;DHT22;52989;48.796;9.806;2023-07-31T02:11:43;12.20;99.90
66184;DHT22;52989;48.796;9.806;2023-07-31T02:14:09;12.20;99.90
66184;DHT22;52989;48.796;9.806;2023-07-31T02:16:35;12.60;99.90
66184;DHT22;52989;48.796;9.806;2023-07-31T02:19:00;12.60;99.90
66184;DHT22;52989;48.796;9.806;2023-07-31T02:21:25;12.40;99.90
66184;DHT22;52989;48.796;9.806;2023-07-31T02:23:51;12.40;99.90
66184;DHT22;52989;48.796;9.806;2023-07-31T02:26:17;12.40;99.90
66184;DHT22;52989;48.796;9.806;2023-07-31T02:28:42;12.30;99.90
66184;DHT22;52989;48.796;9.806;2023-07-31T02:31:08;12.50;99.90
66184;DHT22;52989;48.796;9.806;2023-07-31T02:33:34;12.20;99.90
66184;DHT22;52989;48.796;9.806;2023-07-31T02:35:59;12.20;99.90
66184;DHT22;52989;48.796;9.806;2023-07-31T02:38:24;12.10;99.90
66184;DHT22;52989;48.796;9.806;2023-07-31T02:40:51;12.30;99.90
66184;DHT22;52989;48.796;9.806;2023-07-31T02:43:17;12.50;99.90
66184;DHT22;52989;48.796;9.806;2023-07-31T02:45:42;12.20;99.90
66184;DHT22;52989;48.796;9.806;2023-07-31T02:48:08;12.40;99.90
66184;DHT22;52989;48.796;9.806;2023-07-31T02:50:33;12.50;99.90
66184;DHT22;52989;48.796;9.806;2023-07-31T02:52:59;13.00;99.90
66184;DHT22;52989;48.796;9.806;2023-07-31T02:55:24;12.60;99.90
66184;DHT22;52989;48.796;9.806;2023-07-31T02:57:49;12.30;99.90
66184;DHT22;52989;48.796;9.806;2023-07-31T03:00:17;12.10;99.90
66184;DHT22;52989;48.796;9.806;2023-07-31T03:02:42;11.90;99.90
66184;DHT22;52989;48.796;9.806;2023-07-31T03:05:08;12.20;99.90
66184;DHT22;52989;48.796;9.806;2023-07-31T03:07:33;11.90;99.90
66184;DHT22;52989;48.796;9.806;2023-07-31T03:09:59;11.80;99.90
66184;DHT22;52989;48.796;9.806;2023-07-31T03:12:24;12.00;99.90
66184;DHT22;52989;48.796;9.806;2023-07-31T03:14:51;12.00;99.90
66184;DHT22;52989;48.796;9.806;2023-07-31T03:17:16;12.10;99.90
66184;DHT22;52989;48.796;9.806;2023-07-31T03:19:42;12.10;99.90
66184;DHT22;52989;48.796;9.806;2023-07-31T03:22:07;12.20;99.90
66184;DHT22;52989;48.796;9.806;2023-07-31T03:24:34;12.30;99.90
66184;DHT22;52989;48.796;9.806;2023-07-31T03:27:00;12.10;99.90
66184;DHT22;52989;48.796;9.806;2023-07-31T03:29:26;12.30;99.90
66184;DHT22;52989;48.796;9.806;2023-07-31T03:31:52;12.10;99.90
66184;DHT22;52989;48.796;9.806;2023-07-31T03:34:19;12.40;99.90
66184;DHT22;52989;48.796;9.806;2023-07-31T03:36:44;12.40;99.90
66184;DHT22;52989;48.796;9.806;2023-07-31T03:39:10;12.40;99.90
66184;DHT22;52989;48.796;9.806;2023-07-31T03:41:35;12.30;99.90
66184;DHT22;52989;48.796;9.806;2023-07-31T03:44:01;12.30;99.90
66184;DHT22;52989;48.796;9.806;2023-07-31T03:46:26;12.20;99.90
66184;DHT22;52989;48.796;9.806;2023-07-31T03:48:52;12.00;99.90
66184;DHT22;52989;48.796;9.806;2023-07-31T03:51:17;12.00;99.90
66184;DHT22;52989;48.796;9.806;2023-07-31T03:53:43;12.20;99.90
66184;DHT22;52989;48.796;9.806;2023-07-31T03:56:09;12.00;99.90
66184;DHT22;52989;48.796;9.806;2023-07-31T03:58:34;12.10;99.90
66184;DHT22;52989;48.796;9.806;2023-07-31T04:01:01;12.10;99.90
66184;DHT22;52989;48.796;9.806;2023-07-31T04:03:26;12.00;99.90
66184;DHT22;52989;48.796;9.806;2023-07-31T04:05:53;12.00;99.90
66184;DHT22;52989;48.796;9.806;2023-07-31T04:08:19;12.20;99.90
66184;DHT22;52989;48.796;9.806;2023-07-31T04:10:44;12.20;99.90
66184;DHT22;52989;48.796;9.806;2023-07-31T04:13:10;12.40;99.90
66184;DHT22;52989;48.796;9.806;2023-07-31T04:15:35;12.70;99.90
66184;DHT22;52989;48.796;9.806;2023-07-31T04:18:01;12.90;99.90
66184;DHT22;52989;48.796;9.806;2023-07-31T04:20:26;12.70;99.90
66184;DHT22;52989;48.796;9.806;2023-07-31T04:22:51;12.50;99.90
66184;DHT22;52989;48.796;9.806;2023-07-31T04:25:17;12.40;99.90
66184;DHT22;52989;48.796;9.806;2023-07-31T04:27:43;12.30;99.90
66184;DHT22;52989;48.796;9.806;2023-07-31T04:30:09;12.30;99.90
66184;DHT22;52989;48.796;9.806;2023-07-31T04:32:34;12.50;99.90
66184;DHT22;52989;48.796;9.806;2023-07-31T04:35:01;12.60;99.90
66184;DHT22;52989;48.796;9.806;2023-07-31T04:37:26;13.20;99.90
66184;DHT22;52989;48.796;9.806;2023-07-31T04:39:51;13.30;99.90
66184;DHT22;52989;48.796;9.806;2023-07-31T04:42:17;13.00;99.90
66184;DHT22;52989;48.796;9.806;2023-07-31T04:44:42;13.30;99.90
66184;DHT22;52989;48.796;9.806;2023-07-31T04:47:08;12.90;99.90
66184;DHT22;52989;48.796;9.806;2023-07-31T04:49:33;12.70;99.90
66184;DHT22;52989;48.796;9.806;2023-07-31T04:51:59;12.60;99.90
66184;DHT22;52989;48.796;9.806;2023-07-31T04:54:24;12.70;99.90
66184;DHT22;52989;48.796;9.806;2023-07-31T04:56:50;12.90;99.90
66184;DHT22;52989;48.796;9.806;2023-07-31T04:59:15;12.80;99.90
66184;DHT22;52989;48.796;9.806;2023-07-31T05:01:41;13.00;99.90
66184;DHT22;52989;48.796;9.806;2023-07-31T05:04:06;12.90;99.90
66184;DHT22;52989;48.796;9.806;2023-07-31T05:06:32;13.10;99.90
66184;DHT22;52989;48.796;9.806;2023-07-31T05:08:57;13.40;99.90
66184;DHT22;52989;48.796;9.806;2023-07-31T05:11:23;13.40;99.90
66184;DHT22;52989;48.796;9.806;2023-07-31T05:13:48;13.60;99.90
66184;DHT22;52989;48.796;9.806;2023-07-31T05:16:14;13.70;99.90
66184;DHT22;52989;48.796;9.806;2023-07-31T05:18:39;13.60;99.90
66184;DHT22;52989;48.796;9.806;2023-07-31T05:21:05;13.60;99.90
66184;DHT22;52989;48.796;9.806;2023-07-31T05:23:31;13.70;99.90
66184;DHT22;52989;48.796;9.806;2023-07-31T05:26:04;13.70;99.90
66184;DHT22;52989;48.796;9.806;2023-07-31T05:28:30;13.80;99.90
66184;DHT22;52989;48.796;9.806;2023-07-31T05:30:59;14.20;99.90
66184;DHT22;52989;48.796;9.806;2023-07-31T05:33:26;14.20;99.90
66184;DHT22;52989;48.796;9.806;2023-07-31T05:35:52;14.10;99.90
66184;DHT22;52989;48.796;9.806;2023-07-31T05:38:17;14.30;99.90
66184;DHT22;52989;48.796;9.806;2023-07-31T05:40:43;14.20;99.90
66184;DHT22;52989;48.796;9.806;2023-07-31T05:43:08;14.20;99.90
66184;DHT22;52989;48.796;9.806;2023-07-31T05:45:35;14.40;99.90
66184;DHT22;52989;48.796;9.806;2023-07-31T05:48:00;14.60;99.90
66184;DHT22;52989;48.796;9.806;2023-07-31T05:50:26;15.00;99.90
66184;DHT22;52989;48.796;9.806;2023-07-31T05:52:51;15.10;99.90
66184;DHT22;52989;48.796;9.806;2023-07-31T05:55:17;14.90;99.90
66184;DHT22;52989;48.796;9.806;2023-07-31T05:57:42;15.20;99.90
66184;DHT22;52989;48.796;9.806;2023-07-31T06:00:11;15.40;99.90
66184;DHT22;52989;48.796;9.806;2023-07-31T06:02:37;15.50;99.90
66184;DHT22;52989;48.796;9.806;2023-07-31T06:05:03;15.30;99.90
66184;DHT22;52989;48.796;9.806;2023-07-31T06:07:29;15.20;99.90
66184;DHT22;52989;48.796;9.806;2023-07-31T06:09:54;15.00;99.90
66184;DHT22;52989;48.796;9.806;2023-07-31T06:12:20;14.90;99.90
66184;DHT22;52989;48.796;9.806;2023-07-31T06:14:46;14.70;99.90
66184;DHT22;52989;48.796;9.806;2023-07-31T06:17:11;14.90;99.90
66184;DHT22;52989;48.796;9.806;2023-07-31T06:19:37;15.00;99.90
66184;DHT22;52989;48.796;9.806;2023-07-31T06:22:02;15.10;99.90
66184;DHT22;52989;48.796;9.806;2023-07-31T06:24:28;15.60;99.90
66184;DHT22;52989;48.796;9.806;2023-07-31T06:26:53;15.80;99.90
66184;DHT22;52989;48.796;9.806;2023-07-31T06:29:20;15.60;99.90
66184;DHT22;52989;48.796;9.806;2023-07-31T06:31:46;15.40;99.90
66184;DHT22;52989;48.796;9.806;2023-07-31T06:34:11;15.60;99.90
66184;DHT22;52989;48.796;9.806;2023-07-31T06:36:36;15.80;99.90
66184;DHT22;52989;48.796;9.806;2023-07-31T06:39:02;15.90;99.90
66184;DHT22;52989;48.796;9.806;2023-07-31T06:41:29;16.10;99.90
66184;DHT22;52989;48.796;9.806;2023-07-31T06:43:54;16.20;99.90
66184;DHT22;52989;48.796;9.806;2023-07-31T06:46:20;16.00;99.90
66184;DHT22;52989;48.796;9.806;2023-07-31T06:48:45;16.10;99.90
66184;DHT22;52989;48.796;9.806;2023-07-31T06:51:10;16.30;99.90
66184;DHT22;52989;48.796;9.806;2023-07-31T06:53:36;16.30;99.90
66184;DHT22;52989;48.796;9.806;2023-07-31T06:56:01;16.20;99.90
66184;DHT22;52989;48.796;9.806;2023-07-31T06:58:27;16.10;99.90
66184;DHT22;52989;48.796;9.806;2023-07-31T07:00:52;16.20;99.90
66184;DHT22;52989;48.796;9.806;2023-07-31T07:03:18;16.10;99.90
66184;DHT22;52989;48.796;9.806;2023-07-31T07:05:44;16.40;99.90
66184;DHT22;52989;48.796;9.806;2023-07-31T07:08:09;16.40;99.90
66184;DHT22;52989;48.796;9.806;2023-07-31T07:10:35;16.60;99.90
66184;DHT22;52989;48.796;9.806;2023-07-31T07:13:00;16.70;99.90
66184;DHT22;52989;48.796;9.806;2023-07-31T07:15:26;16.80;99.90
66184;DHT22;52989;48.796;9.806;2023-07-31T07:17:51;16.90;99.90
66184;DHT22;52989;48.796;9.806;2023-07-31T07:20:17;16.90;99.90
66184;DHT22;52989;48.796;9.806;2023-07-31T07:22:42;17.00;99.90
66184;DHT22;52989;48.796;9.806;2023-07-31T07:25:08;17.40;99.90
66184;DHT22;52989;48.796;9.806;2023-07-31T07:27:34;17.50;99.90
66184;DHT22;52989;48.796;9.806;2023-07-31T07:29:59;17.50;99.90
66184;DHT22;52989;48.796;9.806;2023-07-31T07:32:25;17.50;99.90
66184;DHT22;52989;48.796;9.806;2023-07-31T07:34:51;17.80;99.90
66184;DHT22;52989;48.796;9.806;2023-07-31T07:37:17;17.60;99.90
66184;DHT22;52989;48.796;9.806;2023-07-31T07:39:42;17.80;99.90
66184;DHT22;52989;48.796;9.806;2023-07-31T07:42:08;18.00;99.90
66184;DHT22;52989;48.796;9.806;2023-07-31T07:44:33;17.90;99.90
66184;DHT22;52989;48.796;9.806;2023-07-31T07:47:00;17.80;99.60
66184;DHT22;52989;48.796;9.806;2023-07-31T07:49:25;18.10;99.90
66184;DHT22;52989;48.796;9.806;2023-07-31T07:51:51;18.10;99.40
66184;DHT22;52989;48.796;9.806;2023-07-31T07:54:16;18.40;99.20
66184;DHT22;52989;48.796;9.806;2023-07-31T07:56:42;18.40;98.70
66184;DHT22;52989;48.796;9.806;2023-07-31T07:59:08;18.70;99.00
66184;DHT22;52989;48.796;9.806;2023-07-31T08:01:33;18.70;98.80
66184;DHT22;52989;48.796;9.806;2023-07-31T08:03:59;18.50;98.40
66184;DHT22;52989;48.796;9.806;2023-07-31T08:06:24;18.50;99.70
66184;DHT22;52989;48.796;9.806;2023-07-31T08:08:50;17.90;99.90
66184;DHT22;52989;48.796;9.806;2023-07-31T08:11:16;17.90;99.70
66184;DHT22;52989;48.796;9.806;2023-07-31T08:13:41;17.90;99.90
66184;DHT22;52989;48.796;9.806;2023-07-31T08:16:07;17.90;99.90
66184;DHT22;52989;48.796;9.806;2023-07-31T08:18:32;18.10;99.90
66184;DHT22;52989;48.796;9.806;2023-07-31T08:20:58;18.30;99.00
66184;DHT22;52989;48.796;9.806;2023-07-31T08:23:24;18.60;99.40
66184;DHT22;52989;48.796;9.806;2023-07-31T08:25:49;18.80;98.30
66184;DHT22;52989;48.796;9.806;2023-07-31T08:28:16;19.10;99.20
66184;DHT22;52989;48.796;9.806;2023-07-31T08:30:41;19.30;98.60
66184;DHT22;52989;48.796;9.806;2023-07-31T08:33:07;19.20;98.30
66184;DHT22;52989;48.796;9.806;2023-07-31T08:35:33;19.30;97.40
66184;DHT22;52989;48.796;9.806;2023-07-31T08:37:58;19.10;97.40
66184;DHT22;52989;48.796;9.806;2023-07-31T08:40:24;19.30;97.50
66184;DHT22;52989;48.796;9.806;2023-07-31T08:42:51;19.60;97.20
66184;DHT22;52989;48.796;9.806;2023-07-31T08:45:17;19.70;96.60
66184;DHT22;52989;48.796;9.806;2023-07-31T08:47:47;19.80;97.20
66184;DHT22;52989;48.796;9.806;2023-07-31T08:50:13;19.80;96.70
66184;DHT22;52989;48.796;9.806;2023-07-31T08:52:39;20.00;95.70
66184;DHT22;52989;48.796;9.806;2023-07-31T08:55:05;20.10;95.50
66184;DHT22;52989;48.796;9.806;2023-07-31T08:57:31;20.10;95.00
66184;DHT22;52989;48.796;9.806;2023-07-31T08:59:57;20.10;95.20
66184;DHT22;52989;48.796;9.806;2023-07-31T09:02:24;20.60;94.90
66184;DHT22;52989;48.796;9.806;2023-07-31T09:04:51;20.30;95.00
66184;DHT22;52989;48.796;9.806;2023-07-31T09:07:16;20.30;94.80
66184;DHT22;52989;48.796;9.806;2023-07-31T09:09:42;20.00;95.10
66184;DHT22;52989;48.796;9.806;2023-07-31T09:12:08;20.10;94.70
66184;DHT22;52989;48.796;9.806;2023-07-31T09:14:33;20.90;94.40
66184;DHT22;52989;48.796;9.806;2023-07-31T09:17:00;21.30;93.80
66184;DHT22;52989;48.796;9.806;2023-07-31T09:19:32;21.10;93.00
66184;DHT22;52989;48.796;9.806;2023-07-31T09:21:59;20.90;93.40
66184;DHT22;52989;48.796;9.806;2023-07-31T09:24:27;21.00;93.40
66184;DHT22;52989;48.796;9.806;2023-07-31T09:26:53;21.40;92.60
66184;DHT22;52989;48.796;9.806;2023-07-31T09:29:19;21.10;92.70
66184;DHT22;52989;48.796;9.806;2023-07-31T09:31:44;20.80;92.20
66184;DHT22;52989;48.796;9.806;2023-07-31T09:34:10;20.90;92.40
66184;DHT22;52989;48.796;9.806;2023-07-31T09:36:50;21.40;91.60
66184;DHT22;52989;48.796;9.806;2023-07-31T09:39:16;21.00;92.80
66184;DHT22;52989;48.796;9.806;2023-07-31T09:41:43;21.80;92.20
66184;DHT22;52989;48.796;9.806;2023-07-31T09:44:09;22.50;91.70
66184;DHT22;52989;48.796;9.806;2023-07-31T09:46:35;22.10;90.90
66184;DHT22;52989;48.796;9.806;2023-07-31T09:49:08;22.60;90.50
66184;DHT22;52989;48.796;9.806;2023-07-31T09:51:37;22.50;89.90
66184;DHT22;52989;48.796;9.806;2023-07-31T09:54:13;22.70;89.10
66184;DHT22;52989;48.796;9.806;2023-07-31T09:56:45;23.00;90.00
66184;DHT22;52989;48.796;9.806;2023-07-31T09:59:14;23.20;87.60
66184;DHT22;52989;48.796;9.806;2023-07-31T10:01:40;22.90;86.60
66184;DHT22;52989;48.796;9.806;2023-07-31T10:04:05;22.90;87.40
66184;DHT22;52989;48.796;9.806;2023-07-31T10:06:33;22.10;90.00
66184;DHT22;52989;48.796;9.806;2023-07-31T10:08:59;22.10;89.00
66184;DHT22;52989;48.796;9.806;2023-07-31T10:11:25;22.60;89.00
66184;DHT22;52989;48.796;9.806;2023-07-31T10:13:52;22.60;86.90
66184;DHT22;52989;48.796;9.806;2023-07-31T10:16:19;22.60;87.40
66184;DHT22;52989;48.796;9.806;2023-07-31T10:18:46;22.10;84.60
66184;DHT22;52989;48.796;9.806;2023-07-31T10:21:13;22.20;87.20
66184;DHT22;52989;48.796;9.806;2023-07-31T10:23:39;22.60;86.80
66184;DHT22;52989;48.796;9.806;2023-07-31T10:26:05;22.60;85.70
66184;DHT22;52989;48.796;9.806;2023-07-31T10:28:32;22.40;85.00
66184;DHT22;52989;48.796;9.806;2023-07-31T10:30:58;22.90;86.00
66184;DHT22;52989;48.796;9.806;2023-07-31T10:33:24;22.20;86.20
66184;DHT22;52989;48.796;9.806;2023-07-31T10:35:50;22.20;87.70
66184;DHT22;52989;48.796;9.806;2023-07-31T10:38:18;22.60;87.50
66184;DHT22;52989;48.796;9.806;2023-07-31T10:40:44;23.10;86.60
66184;DHT22;52989;48.796;9.806;2023-07-31T10:43:15;23.30;85.20
66184;DHT22;52989;48.796;9.806;2023-07-31T10:45:48;23.00;84.60
66184;DHT22;52989;48.796;9.806;2023-07-31T10:48:14;23.20;82.80
66184;DHT22;52989;48.796;9.806;2023-07-31T10:50:50;23.00;84.60
66184;DHT22;52989;48.796;9.806;2023-07-31T10:56:11;21.80;87.90
66184;DHT22;52989;48.796;9.806;2023-07-31T10:58:44;22.20;86.30
66184;DHT22;52989;48.796;9.806;2023-07-31T11:01:10;22.40;85.50
66184;DHT22;52989;48.796;9.806;2023-07-31T11:03:48;22.90;84.70
66184;DHT22;52989;48.796;9.806;2023-07-31T11:06:17;23.20;85.40
66184;DHT22;52989;48.796;9.806;2023-07-31T11:08:46;23.20;84.10
66184;DHT22;52989;48.796;9.806;2023-07-31T11:11:14;23.80;84.90
66184;DHT22;52989;48.796;9.806;2023-07-31T11:13:48;23.60;82.00
66184;DHT22;52989;48.796;9.806;2023-07-31T11:16:23;23.50;84.10
66184;DHT22;52989;48.796;9.806;2023-07-31T11:18:50;23.90;81.60
66184;DHT22;52989;48.796;9.806;2023-07-31T11:21:17;24.40;79.70
66184;DHT22;52989;48.796;9.806;2023-07-31T11:23:46;24.00;80.00
66184;DHT22;52989;48.796;9.806;2023-07-31T11:26:12;24.10;81.90
66184;DHT22;52989;48.796;9.806;2023-07-31T11:28:37;24.10;80.40
66184;DHT22;52989;48.796;9.806;2023-07-31T11:31:03;24.60;81.00
66184;DHT22;52989;48.796;9.806;2023-07-31T11:33:30;25.30;80.20
66184;DHT22;52989;48.796;9.806;2023-07-31T11:35:55;25.30;77.90
66184;DHT22;52989;48.796;9.806;2023-07-31T11:38:21;24.90;77.50
66184;DHT22;52989;48.796;9.806;2023-07-31T11:40:52;24.50;77.80
66184;DHT22;52989;48.796;9.806;2023-07-31T11:43:17;24.00;78.70
66184;DHT22;52989;48.796;9.806;2023-07-31T11:45:47;23.80;80.70
66184;DHT22;52989;48.796;9.806;2023-07-31T11:48:19;23.90;80.30
66184;DHT22;52989;48.796;9.806;2023-07-31T11:50:45;23.80;80.90
66184;DHT22;52989;48.796;9.806;2023-07-31T11:53:11;23.40;82.10
66184;DHT22;52989;48.796;9.806;2023-07-31T11:55:38;23.80;80.70
66184;DHT22;52989;48.796;9.806;2023-07-31T11:58:03;24.50;80.40
66184;DHT22;52989;48.796;9.806;2023-07-31T12:00:29;24.30;82.10
66184;DHT22;52989;48.796;9.806;2023-07-31T12:02:55;24.30;80.20
66184;DHT22;52989;48.796;9.806;2023-07-31T12:05:23;24.40;79.90
66184;DHT22;52989;48.796;9.806;2023-07-31T12:07:50;24.80;79.60
66184;DHT22;52989;48.796;9.806;2023-07-31T12:10:29;25.00;78.30
66184;DHT22;52989;48.796;9.806;2023-07-31T12:12:55;24.80;79.30
66184;DHT22;52989;48.796;9.806;2023-07-31T12:15:20;24.90;78.90
66184;DHT22;52989;48.796;9.806;2023-07-31T12:17:47;25.00;79.20
66184;DHT22;52989;48.796;9.806;2023-07-31T12:20:12;24.90;78.60
66184;DHT22;52989;48.796;9.806;2023-07-31T12:22:38;24.60;79.70
66184;DHT22;52989;48.796;9.806;2023-07-31T12:25:03;24.70;78.80
66184;DHT22;52989;48.796;9.806;2023-07-31T12:27:32;24.60;77.60
66184;DHT22;52989;48.796;9.806;2023-07-31T12:29:57;24.30;79.40
66184;DHT22;52989;48.796;9.806;2023-07-31T12:32:23;23.60;78.80
66184;DHT22;52989;48.796;9.806;2023-07-31T12:34:50;23.60;80.80
66184;DHT22;52989;48.796;9.806;2023-07-31T12:37:16;23.80;80.00
66184;DHT22;52989;48.796;9.806;2023-07-31T12:39:41;24.00;80.30
66184;DHT22;52989;48.796;9.806;2023-07-31T12:42:06;23.60;80.00
66184;DHT22;52989;48.796;9.806;2023-07-31T12:44:32;23.30;81.40
66184;DHT22;52989;48.796;9.806;2023-07-31T12:46:57;22.80;82.10
66184;DHT22;52989;48.796;9.806;2023-07-31T12:49:23;23.30;82.10
66184;DHT22;52989;48.796;9.806;2023-07-31T12:51:50;23.20;82.40
66184;DHT22;52989;48.796;9.806;2023-07-31T12:54:15;23.30;81.00
66184;DHT22;52989;48.796;9.806;2023-07-31T12:56:41;23.30;80.70
66184;DHT22;52989;48.796;9.806;2023-07-31T12:59:06;23.50;80.80
66184;DHT22;52989;48.796;9.806;2023-07-31T13:01:32;23.60;80.60
66184;DHT22;52989;48.796;9.806;2023-07-31T13:03:57;23.50;82.30
66184;DHT22;52989;48.796;9.806;2023-07-31T13:06:24;23.80;81.10
66184;DHT22;52989;48.796;9.806;2023-07-31T13:08:50;23.90;80.30
66184;DHT22;52989;48.796;9.806;2023-07-31T13:11:15;23.70;79.60
66184;DHT22;52989;48.796;9.806;2023-07-31T13:13:40;24.00;79.70
66184;DHT22;52989;48.796;9.806;2023-07-31T13:16:06;23.90;80.70
66184;DHT22;52989;48.796;9.806;2023-07-31T13:18:31;24.00;78.90
66184;DHT22;52989;48.796;9.806;2023-07-31T13:20:57;23.60;81.70
66184;DHT22;52989;48.796;9.806;2023-07-31T13:23:22;23.90;78.70
66184;DHT22;52989;48.796;9.806;2023-07-31T13:25:48;23.90;77.80
66184;DHT22;52989;48.796;9.806;2023-07-31T13:28:13;24.30;80.40
66184;DHT22;52989;48.796;9.806;2023-07-31T13:30:39;24.20;79.00
66184;DHT22;52989;48.796;9.806;2023-07-31T13:33:05;23.70;80.80
66184;DHT22;52989;48.796;9.806;2023-07-31T13:35:30;23.60;82.30
66184;DHT22;52989;48.796;9.806;2023-07-31T13:37:56;23.50;82.40
66184;DHT22;52989;48.796;9.806;2023-07-31T13:40:22;23.40;82.40
66184;DHT22;52989;48.796;9.806;2023-07-31T13:42:48;23.30;83.20
66184;DHT22;52989;48.796;9.806;2023-07-31T13:45:13;23.20;82.10
66184;DHT22;52989;48.796;9.806;2023-07-31T13:47:39;23.30;83.30
66184;DHT22;52989;48.796;9.806;2023-07-31T13:50:04;23.20;83.00
66184;DHT22;52989;48.796;9.806;2023-07-31T13:52:30;23.30;82.00
66184;DHT22;52989;48.796;9.806;2023-07-31T13:54:55;23.10;82.60
66184;DHT22;52989;48.796;9.806;2023-07-31T13:57:21;22.90;83.40
66184;DHT22;52989;48.796;9.806;2023-07-31T13:59:46;22.60;82.90
66184;DHT22;52989;48.796;9.806;2023-07-31T14:02:12;22.70;84.60
66184;DHT22;52989;48.796;9.806;2023-07-31T14:04:38;22.40;84.70
66184;DHT22;52989;48.796;9.806;2023-07-31T14:07:05;22.40;83.40
66184;DHT22;52989;48.796;9.806;2023-07-31T14:09:31;22.40;82.90
66184;DHT22;52989;48.796;9.806;2023-07-31T14:11:56;22.60;84.90
66184;DHT22;52989;48.796;9.806;2023-07-31T14:14:22;22.50;85.70
66184;DHT22;52989;48.796;9.806;2023-07-31T14:16:47;22.50;82.70
66184;DHT22;52989;48.796;9.806;2023-07-31T14:19:13;22.50;82.00
66184;DHT22;52989;48.796;9.806;2023-07-31T14:21:38;22.40;84.60
66184;DHT22;52989;48.796;9.806;2023-07-31T14:24:04;22.50;82.70
66184;DHT22;52989;48.796;9.806;2023-07-31T14:26:29;22.50;82.70
66184;DHT22;52989;48.796;9.806;2023-07-31T14:28:55;22.20;84.80
66184;DHT22;52989;48.796;9.806;2023-07-31T14:31:20;22.30;86.10
66184;DHT22;52989;48.796;9.806;2023-07-31T14:33:46;22.10;89.10
66184;DHT22;52989;48.796;9.806;2023-07-31T14:36:11;22.20;86.90
66184;DHT22;52989;48.796;9.806;2023-07-31T14:38:37;22.40;85.90
66184;DHT22;52989;48.796;9.806;2023-07-31T14:41:02;22.50;85.60
66184;DHT22;52989;48.796;9.806;2023-07-31T14:43:28;22.50;85.70
66184;DHT22;52989;48.796;9.806;2023-07-31T14:45:53;22.80;84.00
66184;DHT22;52989;48.796;9.806;2023-07-31T14:48:21;22.90;82.40
66184;DHT22;52989;48.796;9.806;2023-07-31T14:50:46;22.70;85.90
66184;DHT22;52989;48.796;9.806;2023-07-31T14:53:12;22.60;87.60
66184;DHT22;52989;48.796;9.806;2023-07-31T14:55:37;22.60;85.50
66184;DHT22;52989;48.796;9.806;2023-07-31T14:58:03;22.90;85.10
66184;DHT22;52989;48.796;9.806;2023-07-31T15:00:29;23.20;82.80
66184;DHT22;52989;48.796;9.806;2023-07-31T15:02:55;23.00;83.50
66184;DHT22;52989;48.796;9.806;2023-07-31T15:05:20;23.20;84.10
66184;DHT22;52989;48.796;9.806;2023-07-31T15:07:46;23.10;82.90
66184;DHT22;52989;48.796;9.806;2023-07-31T15:10:12;23.20;83.50
66184;DHT22;52989;48.796;9.806;2023-07-31T15:12:39;23.30;83.70
66184;DHT22;52989;48.796;9.806;2023-07-31T15:15:05;23.10;83.50
66184;DHT22;52989;48.796;9.806;2023-07-31T15:17:30;23.10;84.00
66184;DHT22;52989;48.796;9.806;2023-07-31T15:19:56;23.20;83.20
66184;DHT22;52989;48.796;9.806;2023-07-31T15:22:21;23.10;84.60
66184;DHT22;52989;48.796;9.806;2023-07-31T15:24:47;23.20;84.70
66184;DHT22;52989;48.796;9.806;2023-07-31T15:27:14;23.40;81.80
66184;DHT22;52989;48.796;9.806;2023-07-31T15:29:39;23.50;82.90
66184;DHT22;52989;48.796;9.806;2023-07-31T15:32:05;23.60;83.50
66184;DHT22;52989;48.796;9.806;2023-07-31T15:34:31;23.50;84.30